createdAt,value
2023-05-01T00:00:10.839Z,957.37
2023-05-01T00:01:14.935Z,957.4
2023-05-01T00:02:17.839Z,957.37
2023-05-01T00:03:19.943Z,957.35
2023-05-01T00:04:21.996Z,957.36
2023-05-01T00:05:23.826Z,957.36
2023-05-01T00:06:25.845Z,957.36
2023-05-01T00:07:27.830Z,957.38
2023-05-01T00:08:29.880Z,957.39
2023-05-01T00:09:31.833Z,957.36
2023-05-01T00:10:33.815Z,957.33
2023-05-01T00:11:35.829Z,957.37
2023-05-01T00:12:38.807Z,957.31
2023-05-01T00:13:40.882Z,957.27
2023-05-01T00:14:42.835Z,957.29
2023-05-01T00:15:44.862Z,957.31
2023-05-01T00:17:26.479Z,957.3
2023-05-01T00:18:26.339Z,957.34
2023-05-01T00:19:26.315Z,957.32
2023-05-01T00:20:26.233Z,957.28
2023-05-01T00:21:26.217Z,957.28
2023-05-01T00:22:26.231Z,957.25
2023-05-01T00:23:26.259Z,957.24
2023-05-01T00:24:26.309Z,957.25
2023-05-01T00:26:26.245Z,957.25
2023-05-01T00:27:26.230Z,957.22
2023-05-01T00:28:26.226Z,957.25
2023-05-01T00:29:26.302Z,957.21
2023-05-01T00:30:26.243Z,957.23
2023-05-01T00:31:26.380Z,957.23
2023-05-01T00:32:26.325Z,957.2
2023-05-01T00:33:26.249Z,957.21
2023-05-01T00:34:26.288Z,957.19
2023-05-01T00:35:26.240Z,957.18
2023-05-01T00:36:27.852Z,957.18
2023-05-01T00:37:29.873Z,957.19
2023-05-01T00:38:32.845Z,957.17
2023-05-01T00:39:35.868Z,957.19
2023-05-01T00:40:37.862Z,957.19
2023-05-01T00:41:39.864Z,957.16
2023-05-01T00:42:41.864Z,957.17
2023-05-01T00:43:44.850Z,957.17
2023-05-01T00:44:46.864Z,957.16
2023-05-01T00:45:48.882Z,957.18
2023-05-01T00:46:50.915Z,957.17
2023-05-01T00:47:52.915Z,957.12
2023-05-01T00:48:55.938Z,957.09
2023-05-01T00:49:58.102Z,957.06
2023-05-01T00:50:59.908Z,957.08
2023-05-01T00:52:01.910Z,957.08
2023-05-01T00:53:03.861Z,957.02
2023-05-01T00:54:05.864Z,957.03
2023-05-01T00:55:07.868Z,957.07
2023-05-01T00:56:09.917Z,957.06
2023-05-01T00:57:11.885Z,957.05
2023-05-01T00:58:14.893Z,957.02
2023-05-01T00:59:18.069Z,957
2023-05-01T01:00:19.937Z,956.96
2023-05-01T01:01:21.932Z,956.99
2023-05-01T01:02:23.908Z,956.97
2023-05-01T01:03:25.873Z,956.92
2023-05-01T01:04:27.981Z,956.91
2023-05-01T01:05:29.870Z,956.87
2023-05-01T01:06:31.920Z,956.85
2023-05-01T01:07:33.871Z,956.8
2023-05-01T01:08:35.889Z,956.77
2023-05-01T01:09:37.873Z,956.79
2023-05-01T01:10:39.875Z,956.73
2023-05-01T01:11:41.888Z,956.76
2023-05-01T01:12:44.881Z,956.75
2023-05-01T01:13:46.919Z,956.72
2023-05-01T01:14:48.925Z,956.68
2023-05-01T01:15:50.984Z,956.66
2023-05-01T01:16:52.899Z,956.64
2023-05-01T01:17:54.984Z,956.62
2023-05-01T01:18:56.875Z,956.63
2023-05-01T01:19:59.890Z,956.63
2023-05-01T01:21:01.942Z,956.65
2023-05-01T01:22:03.870Z,956.64
2023-05-01T01:23:05.911Z,956.65
2023-05-01T01:24:08.888Z,956.65
2023-05-01T01:25:10.880Z,956.67
2023-05-01T01:26:12.885Z,956.63
2023-05-01T01:27:18.896Z,956.64
2023-05-01T01:28:20.896Z,956.65
2023-05-01T01:29:22.876Z,956.67
2023-05-01T01:30:24.888Z,956.64
2023-05-01T01:31:26.995Z,956.66
2023-05-01T01:32:28.948Z,956.67
2023-05-01T01:33:30.903Z,956.66
2023-05-01T01:34:32.880Z,956.66
2023-05-01T01:35:34.947Z,956.65
2023-05-01T01:36:36.899Z,956.62
2023-05-01T01:38:26.268Z,956.62
2023-05-01T01:39:26.278Z,956.6
2023-05-01T01:40:26.280Z,956.59
2023-05-01T01:41:26.347Z,956.6
2023-05-01T01:42:26.280Z,956.61
2023-05-01T01:43:26.284Z,956.63
2023-05-01T01:44:26.283Z,956.58
2023-05-01T01:45:26.274Z,956.55
2023-05-01T01:46:26.446Z,956.59
2023-05-01T01:47:26.314Z,956.59
2023-05-01T01:48:26.280Z,956.59
2023-05-01T01:49:26.341Z,956.58
2023-05-01T01:50:26.350Z,956.6
2023-05-01T01:51:26.283Z,956.56
2023-05-01T01:52:26.301Z,956.54
2023-05-01T01:53:26.301Z,956.56
2023-05-01T01:54:26.295Z,956.55
2023-05-01T01:55:26.338Z,956.55
2023-05-01T01:56:26.280Z,956.54
2023-05-01T01:57:26.295Z,956.57
2023-05-01T01:58:26.365Z,956.56
2023-05-01T01:59:26.908Z,956.52
2023-05-01T02:00:28.919Z,956.51
2023-05-01T02:01:30.923Z,956.46
2023-05-01T02:02:32.972Z,956.45
2023-05-01T02:03:35.088Z,956.42
2023-05-01T02:05:26.341Z,956.43
2023-05-01T02:06:26.326Z,956.38
2023-05-01T02:07:26.344Z,956.38
2023-05-01T02:08:26.299Z,956.33
2023-05-01T02:09:26.389Z,956.32
2023-05-01T02:10:26.313Z,956.34
2023-05-01T02:11:26.315Z,956.3
2023-05-01T02:12:26.337Z,956.32
2023-05-01T02:13:26.307Z,956.29
2023-05-01T02:14:26.367Z,956.28
2023-05-01T02:15:26.316Z,956.29
2023-05-01T02:16:26.423Z,956.29
2023-05-01T02:17:26.370Z,956.27
2023-05-01T02:18:26.324Z,956.23
2023-05-01T02:20:26.364Z,956.2
2023-05-01T02:21:26.377Z,956.16
2023-05-01T02:22:26.362Z,956.12
2023-05-01T02:23:26.316Z,956.13
2023-05-01T02:24:26.346Z,956.13
2023-05-01T02:25:28.480Z,956.1
2023-05-01T02:26:26.375Z,956.07
2023-05-01T02:27:26.322Z,956.07
2023-05-01T02:29:28.942Z,956.03
2023-05-01T02:30:30.925Z,956.02
2023-05-01T02:31:33.031Z,956.03
2023-05-01T02:32:34.974Z,955.98
2023-05-01T02:34:38.930Z,955.98
2023-05-01T02:35:40.962Z,956.03
2023-05-01T02:36:42.989Z,956.02
2023-05-01T02:37:44.992Z,955.99
2023-05-01T02:38:47.937Z,955.99
2023-05-01T02:39:49.938Z,955.99
2023-05-01T02:40:51.946Z,956.02
2023-05-01T02:41:53.974Z,956.06
2023-05-01T02:42:55.935Z,956.08
2023-05-01T02:43:57.948Z,956.04
2023-05-01T02:44:59.933Z,956.05
2023-05-01T02:46:02.075Z,956.06
2023-05-01T02:47:04.000Z,956.06
2023-05-01T02:48:05.978Z,956.06
2023-05-01T02:49:08.005Z,956.05
2023-05-01T02:50:10.948Z,956.02
2023-05-01T02:51:12.923Z,956.01
2023-05-01T02:52:14.972Z,956.02
2023-05-01T02:53:18.940Z,956.02
2023-05-01T02:54:20.963Z,956.04
2023-05-01T02:55:23.007Z,956
2023-05-01T02:56:24.950Z,956.01
2023-05-01T02:57:26.957Z,956.01
2023-05-01T02:58:28.961Z,956.03
2023-05-01T02:59:30.969Z,956.04
2023-05-01T03:00:34.032Z,956.05
2023-05-01T03:01:35.990Z,956.02
2023-05-01T03:02:37.972Z,956.01
2023-05-01T03:03:40.095Z,956.02
2023-05-01T03:04:42.085Z,955.98
2023-05-01T03:05:44.972Z,955.97
2023-05-01T03:06:48.079Z,955.94
2023-05-01T03:07:49.975Z,955.98
2023-05-01T03:08:51.958Z,955.99
2023-05-01T03:09:54.256Z,955.94
2023-05-01T03:10:55.952Z,955.96
2023-05-01T03:11:58.015Z,955.96
2023-05-01T03:12:59.948Z,956.02
2023-05-01T03:14:02.020Z,955.95
2023-05-01T03:15:04.015Z,955.94
2023-05-01T03:16:05.989Z,955.94
2023-05-01T03:17:07.972Z,955.95
2023-05-01T03:18:10.050Z,955.91
2023-05-01T03:19:12.962Z,955.91
2023-05-01T03:20:15.070Z,955.93
2023-05-01T03:21:18.958Z,955.89
2023-05-01T03:22:22.003Z,955.9
2023-05-01T03:23:23.958Z,955.91
2023-05-01T03:25:28.039Z,955.93
2023-05-01T03:26:29.965Z,955.94
2023-05-01T03:27:31.966Z,955.95
2023-05-01T03:28:34.964Z,955.99
2023-05-01T03:29:36.970Z,955.99
2023-05-01T03:30:39.027Z,955.98
2023-05-01T03:31:41.037Z,955.93
2023-05-01T03:32:43.004Z,955.92
2023-05-01T03:33:45.155Z,955.91
2023-05-01T03:34:46.984Z,955.89
2023-05-01T03:35:50.048Z,955.88
2023-05-01T03:36:51.972Z,955.85
2023-05-01T03:37:53.964Z,955.86
2023-05-01T03:38:55.997Z,955.86
2023-05-01T03:39:58.214Z,955.85
2023-05-01T03:41:00.051Z,955.88
2023-05-01T03:42:02.040Z,955.85
2023-05-01T03:43:03.978Z,955.89
2023-05-01T03:44:06.040Z,955.9
2023-05-01T03:45:07.997Z,955.86
2023-05-01T03:46:10.135Z,955.87
2023-05-01T03:47:12.971Z,955.88
2023-05-01T03:48:15.079Z,955.83
2023-05-01T03:49:18.998Z,955.84
2023-05-01T03:50:20.977Z,955.84
2023-05-01T03:51:23.011Z,955.85
2023-05-01T03:52:25.038Z,955.88
2023-05-01T03:53:26.982Z,955.88
2023-05-01T03:54:28.968Z,955.87
2023-05-01T03:55:31.057Z,955.87
2023-05-01T03:56:32.999Z,955.84
2023-05-01T03:57:35.045Z,955.82
2023-05-01T03:58:36.991Z,955.81
2023-05-01T03:59:39.990Z,955.83
2023-05-01T04:00:41.986Z,955.85
2023-05-01T04:01:44.010Z,955.86
2023-05-01T04:02:46.264Z,955.86
2023-05-01T04:03:48.044Z,955.86
2023-05-01T04:04:50.994Z,955.85
2023-05-01T04:05:53.084Z,955.86
2023-05-01T04:06:54.998Z,955.85
2023-05-01T04:07:57.005Z,955.83
2023-05-01T04:08:59.052Z,955.85
2023-05-01T04:10:01.012Z,955.83
2023-05-01T04:11:03.142Z,955.82
2023-05-01T04:12:05.005Z,955.8
2023-05-01T04:13:06.996Z,955.78
2023-05-01T04:14:09.012Z,955.73
2023-05-01T04:15:10.992Z,955.75
2023-05-01T04:16:13.116Z,955.73
2023-05-01T04:17:15.013Z,955.73
2023-05-01T04:18:17.063Z,955.71
2023-05-01T04:19:19.014Z,955.7
2023-05-01T04:20:21.011Z,955.68
2023-05-01T04:21:23.051Z,955.68
2023-05-01T04:22:25.056Z,955.7
2023-05-01T04:23:27.023Z,955.71
2023-05-01T04:24:29.000Z,955.69
2023-05-01T04:25:31.008Z,955.68
2023-05-01T04:26:33.059Z,955.68
2023-05-01T04:27:35.072Z,955.69
2023-05-01T04:28:37.011Z,955.71
2023-05-01T04:29:40.018Z,955.71
2023-05-01T04:30:42.048Z,955.7
2023-05-01T04:31:44.029Z,955.73
2023-05-01T04:32:46.093Z,955.73
2023-05-01T04:33:47.994Z,955.69
2023-05-01T04:34:50.006Z,955.65
2023-05-01T04:35:52.013Z,955.72
2023-05-01T04:36:54.068Z,955.69
2023-05-01T04:37:56.076Z,955.73
2023-05-01T04:38:58.012Z,955.71
2023-05-01T04:40:01.028Z,955.69
2023-05-01T04:41:03.024Z,955.71
2023-05-01T04:42:05.016Z,955.71
2023-05-01T04:43:07.071Z,955.7
2023-05-01T04:44:10.019Z,955.7
2023-05-01T04:45:12.036Z,955.69
2023-05-01T04:46:15.098Z,955.67
2023-05-01T04:47:19.017Z,955.66
2023-05-01T04:48:21.131Z,955.65
2023-05-01T04:49:23.030Z,955.7
2023-05-01T04:50:26.088Z,955.69
2023-05-01T04:51:28.023Z,955.64
2023-05-01T04:52:30.028Z,955.64
2023-05-01T04:53:33.096Z,955.68
2023-05-01T04:54:35.039Z,955.7
2023-05-01T04:55:38.104Z,955.64
2023-05-01T04:56:40.020Z,955.67
2023-05-01T04:57:43.024Z,955.66
2023-05-01T04:58:45.076Z,955.64
2023-05-01T04:59:47.028Z,955.66
2023-05-01T05:00:49.007Z,955.65
2023-05-01T05:01:51.182Z,955.63
2023-05-01T05:02:53.110Z,955.67
2023-05-01T05:03:56.197Z,955.68
2023-05-01T05:04:58.034Z,955.68
2023-05-01T05:06:00.089Z,955.71
2023-05-01T05:07:02.067Z,955.67
2023-05-01T05:08:04.066Z,955.66
2023-05-01T05:09:07.092Z,955.64
2023-05-01T05:10:09.135Z,955.65
2023-05-01T05:11:11.072Z,955.65
2023-05-01T05:12:13.039Z,955.65
2023-05-01T05:13:15.058Z,955.66
2023-05-01T05:14:19.103Z,955.63
2023-05-01T05:15:22.069Z,955.61
2023-05-01T05:16:24.159Z,955.58
2023-05-01T05:17:26.147Z,955.63
2023-05-01T05:18:28.048Z,955.58
2023-05-01T05:19:30.048Z,955.61
2023-05-01T05:20:32.036Z,955.62
2023-05-01T05:21:34.039Z,955.62
2023-05-01T05:22:36.113Z,955.58
2023-05-01T05:23:38.040Z,955.59
2023-05-01T05:24:52.400Z,955.6
2023-05-01T05:26:26.487Z,955.56
2023-05-01T05:27:26.431Z,955.61
2023-05-01T05:28:26.486Z,955.59
2023-05-01T05:29:26.449Z,955.59
2023-05-01T05:30:26.443Z,955.58
2023-05-01T05:31:26.487Z,955.58
2023-05-01T05:32:26.589Z,955.58
2023-05-01T05:33:26.499Z,955.59
2023-05-01T05:34:26.447Z,955.59
2023-05-01T05:36:04.112Z,955.58
2023-05-01T05:37:06.062Z,955.51
2023-05-01T05:38:08.056Z,955.56
2023-05-01T05:39:10.053Z,955.59
2023-05-01T05:40:12.119Z,955.56
2023-05-01T05:41:15.133Z,955.53
2023-05-01T05:42:18.078Z,955.54
2023-05-01T05:43:21.063Z,955.55
2023-05-01T05:44:23.130Z,955.55
2023-05-01T05:45:25.058Z,955.51
2023-05-01T05:46:28.224Z,955.53
2023-05-01T05:47:30.073Z,955.52
2023-05-01T05:48:32.072Z,955.5
2023-05-01T05:49:34.063Z,955.49
2023-05-01T05:50:37.075Z,955.45
2023-05-01T05:51:39.073Z,955.42
2023-05-01T05:52:41.090Z,955.41
2023-05-01T05:53:43.073Z,955.42
2023-05-01T05:54:45.069Z,955.42
2023-05-01T05:55:48.115Z,955.44
2023-05-01T05:56:50.063Z,955.4
2023-05-01T05:57:52.070Z,955.4
2023-05-01T05:58:54.079Z,955.45
2023-05-01T05:59:56.277Z,955.42
2023-05-01T06:00:58.081Z,955.39
2023-05-01T06:02:00.090Z,955.41
2023-05-01T06:03:02.180Z,955.42
2023-05-01T06:04:04.065Z,955.4
2023-05-01T06:06:08.193Z,955.37
2023-05-01T06:07:10.070Z,955.35
2023-05-01T06:08:12.099Z,955.32
2023-05-01T06:09:15.154Z,955.31
2023-05-01T06:10:19.147Z,955.29
2023-05-01T06:11:21.135Z,955.32
2023-05-01T06:12:23.072Z,955.28
2023-05-01T06:13:25.097Z,955.25
2023-05-01T06:15:29.160Z,955.27
2023-05-01T06:16:31.216Z,955.26
2023-05-01T06:17:33.121Z,955.22
2023-05-01T06:18:35.155Z,955.21
2023-05-01T06:19:37.093Z,955.19
2023-05-01T06:20:39.099Z,955.22
2023-05-01T06:21:41.090Z,955.21
2023-05-01T06:22:43.103Z,955.22
2023-05-01T06:23:46.211Z,955.18
2023-05-01T06:24:49.094Z,955.17
2023-05-01T06:25:51.092Z,955.2
2023-05-01T06:26:53.143Z,955.13
2023-05-01T06:27:55.094Z,955.16
2023-05-01T06:28:58.170Z,955.17
2023-05-01T06:30:00.100Z,955.15
2023-05-01T06:31:02.130Z,955.16
2023-05-01T06:32:04.166Z,955.13
2023-05-01T06:33:26.476Z,955.13
2023-05-01T06:36:26.541Z,955.1
2023-05-01T06:37:26.499Z,955.09
2023-05-01T06:38:27.110Z,955.07
2023-05-01T06:39:26.487Z,955.1
2023-05-01T06:40:26.500Z,955.11
2023-05-01T06:41:26.547Z,955.09
2023-05-01T06:43:28.145Z,955.07
2023-05-01T06:44:31.547Z,955.06
2023-05-01T06:45:32.102Z,955.07
2023-05-01T06:46:34.144Z,955.07
2023-05-01T06:47:40.508Z,955.06
2023-05-01T06:48:38.277Z,955.03
2023-05-01T06:49:40.100Z,955
2023-05-01T06:50:42.110Z,955.04
2023-05-01T06:51:44.110Z,954.99
2023-05-01T06:52:46.158Z,954.97
2023-05-01T06:53:48.339Z,954.99
2023-05-01T06:55:04.402Z,954.99
2023-05-01T06:55:52.109Z,954.92
2023-05-01T06:56:54.159Z,954.88
2023-05-01T06:58:26.479Z,954.86
2023-05-01T06:59:26.610Z,954.87
2023-05-01T07:01:03.174Z,954.87
2023-05-01T07:02:05.163Z,954.89
2023-05-01T07:03:07.151Z,954.87
2023-05-01T07:04:22.459Z,954.85
2023-05-01T07:05:11.128Z,954.88
2023-05-01T07:06:13.178Z,954.87
2023-05-01T07:07:26.510Z,954.78
2023-05-01T07:08:26.515Z,954.82
2023-05-01T07:09:26.583Z,954.75
2023-05-01T07:11:27.119Z,954.73
2023-05-01T07:12:29.182Z,954.75
2023-05-01T07:13:31.125Z,954.74
2023-05-01T07:14:46.490Z,954.69
2023-05-01T07:15:35.122Z,954.66
2023-05-01T07:16:37.203Z,954.66
2023-05-01T07:17:39.188Z,954.59
2023-05-01T07:18:42.139Z,954.56
2023-05-01T07:19:44.153Z,954.54
2023-05-01T07:21:26.564Z,954.5
2023-05-01T07:22:26.537Z,954.52
2023-05-01T07:23:26.531Z,954.49
2023-05-01T07:24:26.585Z,954.47
2023-05-01T07:25:26.534Z,954.43
2023-05-01T07:26:26.516Z,954.46
2023-05-01T07:27:26.521Z,954.51
2023-05-01T07:28:26.521Z,954.5
2023-05-01T07:29:26.592Z,954.53
2023-05-01T07:30:26.604Z,954.49
2023-05-01T07:31:26.557Z,954.42
2023-05-01T07:32:26.525Z,954.42
2023-05-01T07:33:26.548Z,954.43
2023-05-01T07:34:26.604Z,954.43
2023-05-01T07:35:26.533Z,954.4
2023-05-01T07:37:26.587Z,954.34
2023-05-01T07:38:26.538Z,954.34
2023-05-01T07:39:26.617Z,954.35
2023-05-01T07:41:26.541Z,954.44
2023-05-01T07:42:26.534Z,954.34
2023-05-01T07:43:26.541Z,954.31
2023-05-01T07:44:26.584Z,954.25
2023-05-01T07:45:26.532Z,954.26
2023-05-01T07:47:26.549Z,954.29
2023-05-01T07:48:26.528Z,954.3
2023-05-01T07:49:26.585Z,954.26
2023-05-01T07:50:26.541Z,954.25
2023-05-01T07:51:26.545Z,954.28
2023-05-01T07:52:26.683Z,954.25
2023-05-01T07:53:26.537Z,954.26
2023-05-01T07:54:26.588Z,954.24
2023-05-01T07:55:26.629Z,954.29
2023-05-01T07:56:26.604Z,954.33
2023-05-01T07:57:26.553Z,954.28
2023-05-01T07:58:26.548Z,954.32
2023-05-01T07:59:26.600Z,954.26
2023-05-01T08:00:26.613Z,954.32
2023-05-01T08:01:26.558Z,954.19
2023-05-01T08:02:26.747Z,954.27
2023-05-01T08:04:19.348Z,954.19
2023-05-01T08:05:21.162Z,954.16
2023-05-01T08:06:23.193Z,954.13
2023-05-01T08:07:25.202Z,954.12
2023-05-01T08:08:27.273Z,954.13
2023-05-01T08:09:29.167Z,954.11
2023-05-01T08:10:31.179Z,954.08
2023-05-01T08:11:33.178Z,954.07
2023-05-01T08:12:35.164Z,954.03
2023-05-01T08:13:39.225Z,954.08
2023-05-01T08:15:46.272Z,954.06
2023-05-01T08:16:48.304Z,954
2023-05-01T08:17:50.269Z,953.96
2023-05-01T08:18:52.180Z,953.99
2023-05-01T08:19:54.378Z,953.99
2023-05-01T08:20:56.182Z,954
2023-05-01T08:21:59.271Z,953.94
2023-05-01T08:23:01.186Z,953.93
2023-05-01T08:24:03.179Z,953.97
2023-05-01T08:25:05.185Z,953.99
2023-05-01T08:26:07.188Z,953.91
2023-05-01T08:27:09.358Z,953.86
2023-05-01T08:28:12.189Z,953.9
2023-05-01T08:29:16.245Z,953.89
2023-05-01T08:30:18.233Z,953.86
2023-05-01T08:31:20.262Z,953.86
2023-05-01T08:32:22.253Z,953.85
2023-05-01T08:33:25.194Z,953.83
2023-05-01T08:34:27.183Z,953.82
2023-05-01T08:35:29.190Z,953.8
2023-05-01T08:36:31.259Z,953.82
2023-05-01T08:37:33.222Z,953.77
2023-05-01T08:38:35.238Z,953.77
2023-05-01T08:39:37.190Z,953.79
2023-05-01T08:40:39.252Z,953.83
2023-05-01T08:41:41.209Z,953.78
2023-05-01T08:42:44.254Z,953.77
2023-05-01T08:44:26.635Z,953.76
2023-05-01T08:45:26.577Z,953.78
2023-05-01T08:46:26.680Z,953.76
2023-05-01T08:47:26.621Z,953.73
2023-05-01T08:48:26.583Z,953.72
2023-05-01T08:49:26.635Z,953.69
2023-05-01T08:50:26.588Z,953.7
2023-05-01T08:51:26.647Z,953.71
2023-05-01T08:52:26.597Z,953.72
2023-05-01T08:53:26.579Z,953.68
2023-05-01T08:54:26.598Z,953.61
2023-05-01T08:55:26.589Z,953.61
2023-05-01T08:56:26.712Z,953.65
2023-05-01T08:57:26.573Z,953.62
2023-05-01T08:58:26.592Z,953.6
2023-05-01T08:59:26.584Z,953.6
2023-05-01T09:00:26.596Z,953.57
2023-05-01T09:01:26.677Z,953.6
2023-05-01T09:02:26.630Z,953.57
2023-05-01T09:03:28.438Z,953.57
2023-05-01T09:04:30.218Z,953.56
2023-05-01T09:05:33.236Z,953.53
2023-05-01T09:06:35.288Z,953.5
2023-05-01T09:07:37.275Z,953.52
2023-05-01T09:08:39.210Z,953.49
2023-05-01T09:09:41.212Z,953.52
2023-05-01T09:10:43.180Z,953.48
2023-05-01T09:11:45.260Z,953.5
2023-05-01T09:12:47.270Z,953.48
2023-05-01T09:13:49.226Z,953.49
2023-05-01T09:14:51.217Z,953.47
2023-05-01T09:15:53.331Z,953.47
2023-05-01T09:16:55.296Z,953.48
2023-05-01T09:17:57.367Z,953.44
2023-05-01T09:19:01.213Z,953.46
2023-05-01T09:20:03.219Z,953.4
2023-05-01T09:21:05.212Z,953.43
2023-05-01T09:22:07.322Z,953.44
2023-05-01T09:23:10.303Z,953.49
2023-05-01T09:24:12.241Z,953.5
2023-05-01T09:25:16.243Z,953.53
2023-05-01T09:26:18.243Z,953.53
2023-05-01T09:27:20.252Z,953.52
2023-05-01T09:28:22.284Z,953.56
2023-05-01T09:29:24.244Z,953.58
2023-05-01T09:30:28.222Z,953.52
2023-05-01T09:31:32.294Z,953.49
2023-05-01T09:32:34.253Z,953.52
2023-05-01T09:33:36.255Z,953.55
2023-05-01T09:34:38.228Z,953.52
2023-05-01T09:35:41.233Z,953.51
2023-05-01T09:36:43.236Z,953.46
2023-05-01T09:37:46.338Z,953.47
2023-05-01T09:38:48.234Z,953.43
2023-05-01T09:39:50.229Z,953.41
2023-05-01T09:40:52.219Z,953.37
2023-05-01T09:41:54.292Z,953.34
2023-05-01T09:42:56.252Z,953.28
2023-05-01T09:43:58.246Z,953.31
2023-05-01T09:45:01.245Z,953.31
2023-05-01T09:46:03.279Z,953.28
2023-05-01T09:47:06.281Z,953.3
2023-05-01T09:48:08.376Z,953.31
2023-05-01T09:49:10.242Z,953.34
2023-05-01T09:50:13.248Z,953.29
2023-05-01T09:51:15.271Z,953.29
2023-05-01T09:52:26.669Z,953.33
2023-05-01T09:54:26.703Z,953.27
2023-05-01T09:55:26.630Z,953.25
2023-05-01T09:56:27.277Z,953.23
2023-05-01T09:57:29.308Z,953.23
2023-05-01T09:58:31.250Z,953.24
2023-05-01T09:59:33.251Z,953.21
2023-05-01T10:00:35.261Z,953.12
2023-05-01T10:01:37.444Z,953.13
2023-05-01T10:02:39.362Z,953.17
2023-05-01T10:03:41.532Z,953.16
2023-05-01T10:04:43.264Z,953.14
2023-05-01T10:05:45.285Z,953.09
2023-05-01T10:06:47.357Z,953.14
2023-05-01T10:07:49.257Z,953.03
2023-05-01T10:08:51.266Z,953.02
2023-05-01T10:09:53.260Z,953.04
2023-05-01T10:10:55.326Z,953.02
2023-05-01T10:11:57.566Z,952.99
2023-05-01T10:12:59.247Z,953.03
2023-05-01T10:14:01.313Z,952.94
2023-05-01T10:15:13.717Z,952.98
2023-05-01T10:16:05.263Z,953.01
2023-05-01T10:17:07.349Z,952.96
2023-05-01T10:18:09.306Z,952.97
2023-05-01T10:19:11.286Z,952.96
2023-05-01T10:20:13.268Z,952.92
2023-05-01T10:21:15.278Z,952.93
2023-05-01T10:22:19.309Z,952.95
2023-05-01T10:23:21.269Z,953.01
2023-05-01T10:24:23.280Z,952.92
2023-05-01T10:25:25.284Z,952.93
2023-05-01T10:26:27.330Z,952.94
2023-05-01T10:27:29.318Z,952.9
2023-05-01T10:28:31.336Z,952.88
2023-05-01T10:29:33.285Z,952.87
2023-05-01T10:30:35.295Z,952.85
2023-05-01T10:31:38.746Z,952.8
2023-05-01T10:32:39.301Z,952.72
2023-05-01T10:33:41.356Z,952.74
2023-05-01T10:34:43.283Z,952.72
2023-05-01T10:35:45.268Z,952.73
2023-05-01T10:36:47.381Z,952.73
2023-05-01T10:37:49.274Z,952.74
2023-05-01T10:38:51.350Z,952.73
2023-05-01T10:39:53.335Z,952.74
2023-05-01T10:40:55.341Z,952.71
2023-05-01T10:41:57.350Z,952.69
2023-05-01T10:42:59.314Z,952.68
2023-05-01T10:44:01.299Z,952.67
2023-05-01T10:45:03.320Z,952.59
2023-05-01T10:46:05.395Z,952.59
2023-05-01T10:47:07.292Z,952.59
2023-05-01T10:48:22.664Z,952.59
2023-05-01T10:50:13.383Z,952.55
2023-05-01T10:51:18.363Z,952.54
2023-05-01T10:52:20.288Z,952.59
2023-05-01T10:53:29.380Z,952.64
2023-05-01T10:54:31.400Z,952.56
2023-05-01T10:55:33.389Z,952.53
2023-05-01T10:56:35.446Z,952.43
2023-05-01T10:57:37.394Z,952.41
2023-05-01T10:58:39.401Z,952.38
2023-05-01T10:59:41.385Z,952.39
2023-05-01T11:00:43.383Z,952.36
2023-05-01T11:01:45.481Z,952.34
2023-05-01T11:02:48.450Z,952.35
2023-05-01T11:03:50.384Z,952.35
2023-05-01T11:04:52.435Z,952.3
2023-05-01T11:05:54.483Z,952.27
2023-05-01T11:06:57.516Z,952.24
2023-05-01T11:07:59.408Z,952.29
2023-05-01T11:09:01.408Z,952.29
2023-05-01T11:10:05.408Z,952.26
2023-05-01T11:11:07.402Z,952.24
2023-05-01T11:12:09.451Z,952.19
2023-05-01T11:13:11.399Z,952.21
2023-05-01T11:14:13.399Z,952.22
2023-05-01T11:16:17.508Z,952.24
2023-05-01T11:17:19.476Z,952.27
2023-05-01T11:18:21.399Z,952.26
2023-05-01T11:19:28.337Z,952.15
2023-05-01T11:20:29.465Z,952.17
2023-05-01T11:22:33.452Z,952.15
2023-05-01T11:23:35.426Z,952.15
2023-05-01T11:24:37.412Z,952.14
2023-05-01T11:25:39.477Z,952.04
2023-05-01T11:26:42.540Z,951.99
2023-05-01T11:28:46.420Z,952.11
2023-05-01T11:29:48.462Z,952.1
2023-05-01T11:30:50.401Z,952.15
2023-05-01T11:31:52.529Z,952.09
2023-05-01T11:32:55.469Z,952.02
2023-05-01T11:33:57.427Z,952.06
2023-05-01T11:35:11.352Z,952
2023-05-01T11:36:28.617Z,952.01
2023-05-01T11:37:18.401Z,952.02
2023-05-01T11:38:20.370Z,952.03
2023-05-01T11:39:22.363Z,952.02
2023-05-01T11:40:26.385Z,952.05
2023-05-01T11:41:29.367Z,951.99
2023-05-01T11:42:31.473Z,952
2023-05-01T11:43:34.372Z,952.07
2023-05-01T11:44:38.376Z,952.04
2023-05-01T11:45:43.413Z,951.93
2023-05-01T11:46:45.368Z,951.92
2023-05-01T11:47:47.439Z,951.87
2023-05-01T11:48:49.364Z,951.87
2023-05-01T11:50:53.435Z,951.87
2023-05-01T11:52:57.439Z,951.97
2023-05-01T11:55:02.910Z,951.86
2023-05-01T11:56:10.873Z,951.85
2023-05-01T11:57:06.374Z,951.85
2023-05-01T11:58:08.431Z,951.84
2023-05-01T11:59:10.432Z,951.84
2023-05-01T12:00:12.384Z,951.83
2023-05-01T12:01:14.413Z,951.82
2023-05-01T12:03:21.549Z,951.85
2023-05-01T12:04:29.712Z,951.81
2023-05-01T12:05:26.759Z,951.81
2023-05-01T12:06:29.410Z,951.85
2023-05-01T12:07:31.369Z,951.81
2023-05-01T12:08:35.415Z,951.83
2023-05-01T12:10:43.421Z,951.82
2023-05-01T12:11:47.370Z,951.79
2023-05-01T12:12:51.430Z,951.79
2023-05-01T12:13:55.434Z,951.78
2023-05-01T12:14:57.599Z,951.76
2023-05-01T12:15:59.369Z,951.78
2023-05-01T12:17:03.423Z,951.8
2023-05-01T12:18:06.475Z,951.81
2023-05-01T12:19:08.423Z,951.76
2023-05-01T12:20:11.436Z,951.8
2023-05-01T12:21:14.380Z,951.74
2023-05-01T12:22:18.382Z,951.77
2023-05-01T12:23:20.379Z,951.74
2023-05-01T12:24:22.436Z,951.73
2023-05-01T12:25:27.379Z,951.8
2023-05-01T12:27:32.465Z,951.74
2023-05-01T12:28:34.376Z,951.77
2023-05-01T12:29:38.382Z,951.72
2023-05-01T12:30:42.390Z,951.68
2023-05-01T12:31:45.453Z,951.8
2023-05-01T12:32:47.410Z,951.75
2023-05-01T12:33:49.366Z,951.77
2023-05-01T12:34:51.420Z,951.77
2023-05-01T12:35:53.382Z,951.76
2023-05-01T12:36:55.385Z,951.72
2023-05-01T12:37:57.388Z,951.7
2023-05-01T12:38:59.416Z,951.66
2023-05-01T12:40:01.439Z,951.69
2023-05-01T12:41:05.398Z,951.7
2023-05-01T12:42:07.435Z,951.72
2023-05-01T12:43:10.386Z,951.69
2023-05-01T12:44:12.399Z,951.7
2023-05-01T12:45:26.842Z,951.67
2023-05-01T12:46:26.864Z,951.69
2023-05-01T12:47:26.770Z,951.7
2023-05-01T12:48:26.763Z,951.72
2023-05-01T12:49:27.415Z,951.66
2023-05-01T12:50:29.465Z,951.66
2023-05-01T12:51:31.466Z,951.66
2023-05-01T12:52:33.413Z,951.67
2023-05-01T12:53:36.403Z,951.68
2023-05-01T12:54:38.413Z,951.68
2023-05-01T12:55:52.712Z,951.66
2023-05-01T12:56:42.425Z,951.64
2023-05-01T12:57:44.424Z,951.65
2023-05-01T12:58:47.428Z,951.62
2023-05-01T13:01:53.549Z,951.63
2023-05-01T13:02:55.471Z,951.6
2023-05-01T13:06:05.459Z,951.59
2023-05-01T13:06:07.037Z,951.61
2023-05-01T13:06:26.877Z,951.59
2023-05-01T13:07:26.808Z,951.56
2023-05-01T13:08:26.806Z,951.57
2023-05-01T13:09:26.826Z,951.62
2023-05-01T13:10:26.807Z,951.63
2023-05-01T13:11:26.853Z,951.6
2023-05-01T13:12:26.864Z,951.6
2023-05-01T13:13:26.809Z,951.58
2023-05-01T13:14:28.882Z,951.55
2023-05-01T13:15:30.886Z,951.54
2023-05-01T13:16:32.943Z,951.49
2023-05-01T13:18:40.921Z,951.56
2023-05-01T13:19:42.880Z,951.53
2023-05-01T13:20:45.897Z,951.53
2023-05-01T13:21:47.876Z,951.53
2023-05-01T13:23:51.988Z,951.5
2023-05-01T13:24:53.865Z,951.51
2023-05-01T13:25:55.922Z,951.53
2023-05-01T13:27:12.680Z,951.5
2023-05-01T13:28:14.748Z,951.46
2023-05-01T13:29:16.689Z,951.46
2023-05-01T13:30:18.700Z,951.44
2023-05-01T13:31:20.698Z,951.46
2023-05-01T13:33:24.747Z,951.46
2023-05-01T13:35:28.702Z,951.46